N653J UWWW-UUWW
Flight info
| Callsign | N653J |
|---|---|
| Flight time | N/A |
| Altitude | 40000 |
| Route | REDMI T173 BMK T750 OKSUD T787 OTKOL T784 LARNO T291 URIDU L158 DIMGI |
| Aircraft | CL60/M-SBDE1E2E3FGHIJ1J4J5J7M3RWXYZ/LB1V1D1 |
Departure
| Time | 2026-04-29 15:08 |
|---|---|
| Airport | Kurumoch International Airport (UWWW) |
Arrival
| Time | N/A |
|---|---|
| Airport | Vnukovo International Airport (UUWW) |
| Time | Latitude | Longitude | Altitude | Speed | Heading |
|---|---|---|---|---|---|
| 2026-04-29 14:37 | 53.50949 | 50.15684 | 428 ft | 0 kts | 331° |
| 2026-04-29 15:05 | 53.50958 | 50.15676 | 428 ft | 3 kts | 331° |
| 2026-04-29 15:05 | 53.50993 | 50.15667 | 429 ft | 7 kts | 23° |
| 2026-04-29 15:05 | 53.51033 | 50.15766 | 426 ft | 13 kts | 61° |
| 2026-04-29 15:05 | 53.51090 | 50.15940 | 422 ft | 20 kts | 61° |
| 2026-04-29 15:06 | 53.51165 | 50.16170 | 419 ft | 25 kts | 62° |
| 2026-04-29 15:06 | 53.51254 | 50.16444 | 416 ft | 28 kts | 61° |
| 2026-04-29 15:06 | 53.51315 | 50.16636 | 415 ft | 17 kts | 61° |
| 2026-04-29 15:06 | 53.51380 | 50.16830 | 415 ft | 20 kts | 60° |
| 2026-04-29 15:07 | 53.51448 | 50.17062 | 412 ft | 15 kts | 97° |
| 2026-04-29 15:07 | 53.51360 | 50.17147 | 412 ft | 32 kts | 156° |
| 2026-04-29 15:07 | 53.50803 | 50.17476 | 392 ft | 136 kts | 153° |
| 2026-04-29 15:07 | 53.49724 | 50.18100 | 869 ft | 179 kts | 166° |
| 2026-04-29 15:08 | 53.48533 | 50.18722 | 1898 ft | 186 kts | 167° |
| 2026-04-29 15:08 | 53.47345 | 50.19429 | 3025 ft | 187 kts | 165° |
| 2026-04-29 15:08 | 53.46119 | 50.20175 | 3905 ft | 196 kts | 165° |
| 2026-04-29 15:08 | 53.44871 | 50.20941 | 4742 ft | 192 kts | 165° |
| 2026-04-29 15:09 | 53.43631 | 50.21702 | 5549 ft | 190 kts | 165° |
| 2026-04-29 15:09 | 53.42401 | 50.22451 | 6357 ft | 190 kts | 167° |
| 2026-04-29 15:09 | 53.41098 | 50.22683 | 6815 ft | 190 kts | 197° |
| 2026-04-29 15:09 | 53.39973 | 50.21544 | 7149 ft | 208 kts | 233° |
| 2026-04-29 15:10 | 53.39318 | 50.19184 | 7747 ft | 241 kts | 250° |
| 2026-04-29 15:10 | 53.38753 | 50.16468 | 8525 ft | 253 kts | 250° |
| 2026-04-29 15:10 | 53.38164 | 50.13687 | 9380 ft | 257 kts | 250° |
| 2026-04-29 15:10 | 53.37697 | 50.10843 | 10245 ft | 260 kts | 262° |
| 2026-04-29 15:11 | 53.37828 | 50.07842 | 11105 ft | 267 kts | 282° |
| 2026-04-29 15:11 | 53.38669 | 50.05060 | 11971 ft | 277 kts | 304° |
| 2026-04-29 15:11 | 53.40193 | 50.03050 | 12861 ft | 293 kts | 328° |
| 2026-04-29 15:11 | 53.42107 | 50.01842 | 13743 ft | 301 kts | 333° |
| 2026-04-29 15:12 | 53.44096 | 50.00649 | 14694 ft | 313 kts | 332° |
| 2026-04-29 15:12 | 53.45470 | 49.99817 | 15368 ft | 321 kts | 331° |
| 2026-04-29 15:12 | 53.48305 | 49.98105 | 16807 ft | 332 kts | 331° |
| 2026-04-29 15:12 | 53.50482 | 49.96792 | 17924 ft | 337 kts | 330° |
| 2026-04-29 15:13 | 53.52671 | 49.95472 | 19054 ft | 340 kts | 329° |
| 2026-04-29 15:13 | 53.54955 | 49.94456 | 20169 ft | 355 kts | 342° |
| 2026-04-29 15:13 | 53.57453 | 49.94479 | 21254 ft | 370 kts | 355° |
| 2026-04-29 15:13 | 53.60014 | 49.94946 | 22065 ft | 379 kts | 356° |
| 2026-04-29 15:14 | 53.62703 | 49.95420 | 22578 ft | 396 kts | 356° |
| 2026-04-29 15:14 | 53.65539 | 49.95927 | 23243 ft | 407 kts | 356° |
| 2026-04-29 15:14 | 53.68424 | 49.96450 | 24055 ft | 412 kts | 356° |
| 2026-04-29 15:14 | 53.71307 | 49.96973 | 24819 ft | 418 kts | 356° |
| 2026-04-29 15:15 | 53.74231 | 49.97502 | 25508 ft | 425 kts | 356° |
| 2026-04-29 15:15 | 53.77150 | 49.97769 | 26301 ft | 414 kts | 346° |
| 2026-04-29 15:15 | 53.79857 | 49.96794 | 27031 ft | 393 kts | 328° |
| 2026-04-29 15:15 | 53.82197 | 49.94619 | 27539 ft | 378 kts | 311° |
| 2026-04-29 15:16 | 53.83983 | 49.91537 | 28127 ft | 363 kts | 296° |
| 2026-04-29 15:16 | 53.85185 | 49.87857 | 28754 ft | 351 kts | 283° |
| 2026-04-29 15:16 | 53.85830 | 49.83950 | 29288 ft | 347 kts | 275° |
| 2026-04-29 15:16 | 53.86289 | 49.79941 | 29832 ft | 351 kts | 274° |
| 2026-04-29 15:17 | 53.86755 | 49.75886 | 30342 ft | 355 kts | 275° |
| 2026-04-29 15:17 | 53.87221 | 49.71830 | 30812 ft | 359 kts | 275° |
| 2026-04-29 15:17 | 53.87699 | 49.67663 | 31231 ft | 361 kts | 275° |
| 2026-04-29 15:17 | 53.88177 | 49.63480 | 31559 ft | 365 kts | 275° |
| 2026-04-29 15:18 | 53.88657 | 49.59272 | 31865 ft | 369 kts | 275° |
| 2026-04-29 15:18 | 53.89142 | 49.54998 | 32132 ft | 373 kts | 275° |
| 2026-04-29 15:18 | 53.89633 | 49.50663 | 32396 ft | 377 kts | 275° |
| 2026-04-29 15:18 | 53.90125 | 49.46311 | 32657 ft | 381 kts | 274° |
| 2026-04-29 15:19 | 53.90624 | 49.41884 | 32910 ft | 384 kts | 275° |
| 2026-04-29 15:19 | 53.91124 | 49.37432 | 33139 ft | 387 kts | 275° |
| 2026-04-29 15:19 | 53.91477 | 49.34272 | 33303 ft | 390 kts | 274° |
| 2026-04-29 15:19 | 53.91841 | 49.31018 | 33477 ft | 392 kts | 274° |
| 2026-04-29 15:20 | 53.92351 | 49.26436 | 33696 ft | 396 kts | 274° |
| 2026-04-29 15:20 | 53.92876 | 49.21711 | 33975 ft | 397 kts | 274° |
| 2026-04-29 15:20 | 53.93241 | 49.18415 | 34190 ft | 398 kts | 274° |
| 2026-04-29 15:20 | 53.93599 | 49.15170 | 34411 ft | 399 kts | 274° |
| 2026-04-29 15:21 | 53.94053 | 49.11508 | 34627 ft | 403 kts | 278° |
| 2026-04-29 15:21 | 53.94917 | 49.07000 | 34905 ft | 410 kts | 285° |
| 2026-04-29 15:21 | 53.96177 | 49.02612 | 35172 ft | 418 kts | 293° |
| 2026-04-29 15:21 | 53.97735 | 48.98426 | 35432 ft | 422 kts | 296° |
| 2026-04-29 15:22 | 53.99328 | 48.94262 | 35705 ft | 422 kts | 296° |
| 2026-04-29 15:22 | 54.00900 | 48.90138 | 35961 ft | 422 kts | 296° |
| 2026-04-29 15:22 | 54.02508 | 48.85908 | 36183 ft | 424 kts | 297° |
| 2026-04-29 15:22 | 54.04095 | 48.81731 | 36421 ft | 425 kts | 297° |
| 2026-04-29 15:23 | 54.05698 | 48.77504 | 36611 ft | 426 kts | 297° |
| 2026-04-29 15:23 | 54.07297 | 48.73276 | 36828 ft | 428 kts | 297° |
| 2026-04-29 15:23 | 54.08905 | 48.69021 | 37015 ft | 429 kts | 298° |
| 2026-04-29 15:23 | 54.10497 | 48.64802 | 37221 ft | 430 kts | 298° |
| 2026-04-29 15:24 | 54.12119 | 48.60494 | 37389 ft | 431 kts | 298° |
| 2026-04-29 15:24 | 54.13718 | 48.56242 | 37570 ft | 431 kts | 298° |
| 2026-04-29 15:24 | 54.15339 | 48.51922 | 37756 ft | 432 kts | 298° |
| 2026-04-29 15:24 | 54.16957 | 48.47604 | 37918 ft | 433 kts | 298° |
| 2026-04-29 15:25 | 54.18565 | 48.43304 | 38121 ft | 434 kts | 298° |
| 2026-04-29 15:25 | 54.20172 | 48.39000 | 38332 ft | 434 kts | 298° |
| 2026-04-29 15:25 | 54.21803 | 48.34623 | 38513 ft | 435 kts | 298° |
| 2026-04-29 15:25 | 54.23405 | 48.30318 | 38763 ft | 434 kts | 298° |
| 2026-04-29 15:26 | 54.25027 | 48.25952 | 38964 ft | 434 kts | 298° |
| 2026-04-29 15:26 | 54.26621 | 48.21626 | 39160 ft | 434 kts | 297° |
| 2026-04-29 15:26 | 54.28177 | 48.17206 | 39387 ft | 433 kts | 296° |
| 2026-04-29 15:26 | 54.29698 | 48.12843 | 39541 ft | 433 kts | 296° |
| 2026-04-29 15:27 | 54.31235 | 48.08434 | 39700 ft | 434 kts | 296° |
| 2026-04-29 15:27 | 54.32774 | 48.04008 | 39879 ft | 433 kts | 297° |
| 2026-04-29 15:27 | 54.34318 | 47.99563 | 40007 ft | 434 kts | 297° |
| 2026-04-29 15:28 | 54.37394 | 47.90680 | 40066 ft | 440 kts | 297° |
| 2026-04-29 15:28 | 54.40516 | 47.81634 | 40064 ft | 446 kts | 297° |
| 2026-04-29 15:29 | 54.43671 | 47.72460 | 40063 ft | 451 kts | 297° |
| 2026-04-29 15:30 | 54.50074 | 47.53741 | 40053 ft | 459 kts | 297° |
| 2026-04-29 15:30 | 54.53286 | 47.44299 | 40052 ft | 462 kts | 297° |
| 2026-04-29 15:31 | 54.56533 | 47.34714 | 40050 ft | 466 kts | 297° |
| 2026-04-29 15:31 | 54.59780 | 47.25098 | 40047 ft | 467 kts | 297° |
| 2026-04-29 15:32 | 54.63023 | 47.15455 | 40048 ft | 467 kts | 297° |
| 2026-04-29 15:32 | 54.66243 | 47.05838 | 40047 ft | 466 kts | 297° |
| 2026-04-29 15:33 | 54.69448 | 46.96104 | 40051 ft | 466 kts | 296° |
| 2026-04-29 15:33 | 54.72588 | 46.86399 | 40054 ft | 466 kts | 296° |
| 2026-04-29 15:34 | 54.75724 | 46.76671 | 40056 ft | 466 kts | 296° |
| 2026-04-29 15:34 | 54.78862 | 46.66901 | 40046 ft | 467 kts | 296° |
| 2026-04-29 15:35 | 54.82130 | 46.57172 | 40046 ft | 469 kts | 303° |
| 2026-04-29 15:35 | 54.86129 | 46.48297 | 40041 ft | 471 kts | 306° |
| 2026-04-29 15:36 | 54.90178 | 46.39381 | 40033 ft | 471 kts | 306° |
| 2026-04-29 15:36 | 54.94199 | 46.30495 | 40039 ft | 472 kts | 305° |
| 2026-04-29 15:37 | 54.98250 | 46.21505 | 40038 ft | 472 kts | 305° |
| 2026-04-29 15:37 | 55.02253 | 46.12591 | 40031 ft | 472 kts | 305° |
| 2026-04-29 15:38 | 55.06289 | 46.03566 | 40028 ft | 471 kts | 305° |
| 2026-04-29 15:38 | 55.10269 | 45.94633 | 40027 ft | 471 kts | 305° |
| 2026-04-29 15:39 | 55.14270 | 45.85622 | 40026 ft | 471 kts | 305° |
| 2026-04-29 15:39 | 55.18274 | 45.76570 | 40022 ft | 471 kts | 305° |
| 2026-04-29 15:40 | 55.22254 | 45.67536 | 40019 ft | 470 kts | 305° |
| 2026-04-29 15:40 | 55.26207 | 45.58532 | 40025 ft | 471 kts | 305° |
| 2026-04-29 15:41 | 55.30189 | 45.49428 | 40022 ft | 471 kts | 305° |
| 2026-04-29 15:41 | 55.34134 | 45.40376 | 40024 ft | 472 kts | 305° |
| 2026-04-29 15:42 | 55.38116 | 45.31204 | 40025 ft | 472 kts | 304° |
| 2026-04-29 15:42 | 55.42075 | 45.22050 | 40022 ft | 472 kts | 304° |
| 2026-04-29 15:43 | 55.46003 | 45.12935 | 40020 ft | 471 kts | 304° |
| 2026-04-29 15:43 | 55.49955 | 45.03731 | 40007 ft | 470 kts | 304° |
| 2026-04-29 15:44 | 55.53707 | 44.94382 | 40012 ft | 468 kts | 297° |
| 2026-04-29 15:44 | 55.56256 | 44.83962 | 40010 ft | 464 kts | 284° |
| 2026-04-29 15:45 | 55.57332 | 44.72850 | 40015 ft | 461 kts | 272° |
| 2026-04-29 15:45 | 55.57622 | 44.61563 | 40020 ft | 462 kts | 271° |
| 2026-04-29 15:46 | 55.57899 | 44.50266 | 40013 ft | 462 kts | 271° |
| 2026-04-29 15:46 | 55.58165 | 44.39028 | 40016 ft | 461 kts | 271° |
| 2026-04-29 15:47 | 55.58422 | 44.27745 | 40017 ft | 461 kts | 270° |
| 2026-04-29 15:47 | 55.58669 | 44.16499 | 40022 ft | 461 kts | 270° |
| 2026-04-29 15:48 | 55.58905 | 44.05255 | 40021 ft | 461 kts | 271° |
| 2026-04-29 15:48 | 55.59132 | 43.93957 | 40015 ft | 462 kts | 271° |
| 2026-04-29 15:49 | 55.59670 | 43.82726 | 40013 ft | 464 kts | 279° |
| 2026-04-29 15:49 | 55.61630 | 43.71823 | 40010 ft | 468 kts | 293° |
| 2026-04-29 15:50 | 55.64751 | 43.61814 | 40007 ft | 470 kts | 298° |
| 2026-04-29 15:50 | 55.68005 | 43.51802 | 40016 ft | 470 kts | 298° |
| 2026-04-29 15:51 | 55.71236 | 43.41822 | 40019 ft | 469 kts | 298° |
| 2026-04-29 15:51 | 55.74453 | 43.31842 | 40016 ft | 469 kts | 297° |
| 2026-04-29 15:52 | 55.77616 | 43.21771 | 40021 ft | 469 kts | 294° |
| 2026-04-29 15:52 | 55.79691 | 43.10921 | 40029 ft | 465 kts | 279° |
| 2026-04-29 15:53 | 55.80482 | 42.99546 | 40033 ft | 465 kts | 274° |
| 2026-04-29 15:53 | 55.81122 | 42.88173 | 40033 ft | 465 kts | 274° |
| 2026-04-29 15:54 | 55.81752 | 42.76824 | 40032 ft | 465 kts | 274° |
| 2026-04-29 15:54 | 55.82375 | 42.65406 | 40033 ft | 464 kts | 275° |
| 2026-04-29 15:55 | 55.82985 | 42.54023 | 40035 ft | 465 kts | 275° |
| 2026-04-29 15:55 | 55.83584 | 42.42673 | 40037 ft | 466 kts | 275° |
| 2026-04-29 15:56 | 55.84177 | 42.31240 | 40039 ft | 466 kts | 274° |
| 2026-04-29 15:56 | 55.84760 | 42.19771 | 40039 ft | 467 kts | 274° |
| 2026-04-29 15:57 | 55.85332 | 42.08325 | 40040 ft | 467 kts | 274° |
| 2026-04-29 15:57 | 55.85895 | 41.96853 | 40040 ft | 467 kts | 274° |
| 2026-04-29 15:58 | 55.86446 | 41.85387 | 40041 ft | 467 kts | 274° |
| 2026-04-29 15:58 | 55.86692 | 41.73956 | 40041 ft | 466 kts | 266° |
| 2026-04-29 15:59 | 55.86339 | 41.62452 | 40044 ft | 466 kts | 266° |
| 2026-04-29 15:59 | 55.85984 | 41.50980 | 40043 ft | 467 kts | 266° |
| 2026-04-29 16:00 | 55.85621 | 41.39518 | 40050 ft | 467 kts | 266° |
| 2026-04-29 16:00 | 55.85247 | 41.28037 | 40045 ft | 468 kts | 266° |
| 2026-04-29 16:01 | 55.84863 | 41.16509 | 40045 ft | 468 kts | 266° |
| 2026-04-29 16:01 | 55.84469 | 41.04989 | 40053 ft | 469 kts | 266° |
| 2026-04-29 16:02 | 55.84066 | 40.93512 | 39942 ft | 466 kts | 266° |
| 2026-04-29 16:02 | 55.83863 | 40.87810 | 39458 ft | 461 kts | 266° |
| 2026-04-29 16:02 | 55.83659 | 40.82183 | 38905 ft | 457 kts | 266° |
| 2026-04-29 16:02 | 55.83455 | 40.76619 | 38329 ft | 454 kts | 266° |
| 2026-04-29 16:03 | 55.83250 | 40.71071 | 37753 ft | 451 kts | 266° |
| 2026-04-29 16:03 | 55.83040 | 40.65490 | 37171 ft | 451 kts | 266° |
| 2026-04-29 16:03 | 55.82828 | 40.59973 | 36543 ft | 452 kts | 266° |
| 2026-04-29 16:03 | 55.82608 | 40.54434 | 35943 ft | 451 kts | 266° |
| 2026-04-29 16:04 | 55.82388 | 40.48951 | 35333 ft | 450 kts | 266° |
| 2026-04-29 16:04 | 55.82161 | 40.43388 | 34729 ft | 448 kts | 266° |
| 2026-04-29 16:04 | 55.81935 | 40.37874 | 34137 ft | 446 kts | 266° |
| 2026-04-29 16:04 | 55.81708 | 40.32433 | 33606 ft | 443 kts | 266° |
| 2026-04-29 16:05 | 55.81482 | 40.27028 | 33044 ft | 447 kts | 266° |
| 2026-04-29 16:05 | 55.81246 | 40.21467 | 32369 ft | 453 kts | 267° |
| 2026-04-29 16:05 | 55.81011 | 40.15987 | 31771 ft | 452 kts | 267° |
| 2026-04-29 16:05 | 55.80770 | 40.10423 | 31047 ft | 449 kts | 268° |
| 2026-04-29 16:06 | 55.80531 | 40.04992 | 30607 ft | 437 kts | 268° |
| 2026-04-29 16:06 | 55.80296 | 39.99701 | 30002 ft | 429 kts | 268° |
| 2026-04-29 16:06 | 55.80064 | 39.94535 | 29481 ft | 419 kts | 268° |
| 2026-04-29 16:06 | 55.79835 | 39.89455 | 28931 ft | 412 kts | 268° |
| 2026-04-29 16:07 | 55.79604 | 39.84408 | 28388 ft | 404 kts | 268° |
| 2026-04-29 16:07 | 55.79340 | 39.79557 | 27866 ft | 398 kts | 266° |
| 2026-04-29 16:07 | 55.79023 | 39.74728 | 27603 ft | 384 kts | 266° |
| 2026-04-29 16:07 | 55.78719 | 39.70125 | 27695 ft | 378 kts | 266° |
| 2026-04-29 16:08 | 55.78413 | 39.65468 | 27730 ft | 389 kts | 266° |
| 2026-04-29 16:08 | 55.78092 | 39.60615 | 27594 ft | 395 kts | 266° |
| 2026-04-29 16:08 | 55.77771 | 39.55824 | 27479 ft | 392 kts | 266° |
| 2026-04-29 16:08 | 55.77448 | 39.51038 | 27374 ft | 390 kts | 266° |
| 2026-04-29 16:09 | 55.77125 | 39.46275 | 27271 ft | 390 kts | 266° |
| 2026-04-29 16:09 | 55.76789 | 39.41347 | 27157 ft | 388 kts | 265° |
| 2026-04-29 16:09 | 55.76456 | 39.36518 | 27050 ft | 388 kts | 265° |
| 2026-04-29 16:09 | 55.76122 | 39.31723 | 26937 ft | 387 kts | 265° |
| 2026-04-29 16:10 | 55.75789 | 39.26955 | 26831 ft | 387 kts | 265° |
| 2026-04-29 16:10 | 55.75452 | 39.22179 | 26720 ft | 386 kts | 265° |
| 2026-04-29 16:10 | 55.75112 | 39.17370 | 26616 ft | 385 kts | 265° |
| 2026-04-29 16:10 | 55.74767 | 39.12529 | 26507 ft | 385 kts | 265° |
| 2026-04-29 16:11 | 55.74429 | 39.07812 | 26398 ft | 384 kts | 265° |
| 2026-04-29 16:11 | 55.74091 | 39.03126 | 26293 ft | 384 kts | 265° |
| 2026-04-29 16:11 | 55.73751 | 38.98431 | 26189 ft | 382 kts | 265° |
| 2026-04-29 16:11 | 55.73413 | 38.93797 | 26084 ft | 381 kts | 265° |
| 2026-04-29 16:12 | 55.73062 | 38.89164 | 25942 ft | 382 kts | 264° |
| 2026-04-29 16:12 | 55.72823 | 38.86069 | 25702 ft | 383 kts | 264° |
| 2026-04-29 16:12 | 55.72342 | 38.79866 | 24933 ft | 382 kts | 264° |
| 2026-04-29 16:12 | 55.71983 | 38.75267 | 24543 ft | 372 kts | 264° |
| 2026-04-29 16:13 | 55.71631 | 38.70787 | 24151 ft | 370 kts | 264° |
| 2026-04-29 16:13 | 55.71286 | 38.66268 | 23789 ft | 369 kts | 265° |
| 2026-04-29 16:13 | 55.70930 | 38.61525 | 23385 ft | 368 kts | 265° |
| 2026-04-29 16:13 | 55.70682 | 38.58247 | 23108 ft | 366 kts | 264° |
| 2026-04-29 16:14 | 55.70333 | 38.53650 | 22726 ft | 363 kts | 265° |
| 2026-04-29 16:14 | 55.69994 | 38.49200 | 22358 ft | 361 kts | 265° |
| 2026-04-29 16:14 | 55.69650 | 38.44711 | 21965 ft | 359 kts | 265° |
| 2026-04-29 16:14 | 55.69309 | 38.40248 | 21592 ft | 357 kts | 265° |
| 2026-04-29 16:15 | 55.68973 | 38.35880 | 21237 ft | 355 kts | 265° |
| 2026-04-29 16:15 | 55.68644 | 38.31607 | 20870 ft | 353 kts | 264° |
| 2026-04-29 16:15 | 55.68310 | 38.27307 | 20521 ft | 351 kts | 264° |
| 2026-04-29 16:15 | 55.67980 | 38.23057 | 20160 ft | 350 kts | 264° |
| 2026-04-29 16:16 | 55.67629 | 38.18650 | 19816 ft | 346 kts | 264° |
| 2026-04-29 16:16 | 55.67277 | 38.14303 | 19688 ft | 344 kts | 264° |
| 2026-04-29 16:16 | 55.66929 | 38.10012 | 19752 ft | 344 kts | 264° |
| 2026-04-29 16:16 | 55.66573 | 38.05631 | 19629 ft | 349 kts | 264° |
| 2026-04-29 16:17 | 55.66212 | 38.01217 | 19515 ft | 344 kts | 264° |
| 2026-04-29 16:17 | 55.65865 | 37.97013 | 19387 ft | 336 kts | 264° |
| 2026-04-29 16:17 | 55.65527 | 37.92926 | 19280 ft | 327 kts | 264° |
| 2026-04-29 16:17 | 55.65193 | 37.88956 | 19162 ft | 321 kts | 262° |
| 2026-04-29 16:18 | 55.64491 | 37.85188 | 19047 ft | 324 kts | 245° |
| 2026-04-29 16:18 | 55.63346 | 37.81608 | 18607 ft | 327 kts | 242° |
| 2026-04-29 16:18 | 55.62176 | 37.78051 | 18203 ft | 320 kts | 242° |
| 2026-04-29 16:18 | 55.61029 | 37.74560 | 17857 ft | 317 kts | 243° |
| 2026-04-29 16:19 | 55.59879 | 37.71062 | 17502 ft | 316 kts | 243° |
| 2026-04-29 16:19 | 55.58747 | 37.67621 | 17155 ft | 315 kts | 243° |
| 2026-04-29 16:19 | 55.57620 | 37.64200 | 16808 ft | 314 kts | 243° |
| 2026-04-29 16:19 | 55.56490 | 37.60972 | 16472 ft | 314 kts | 236° |
| 2026-04-29 16:20 | 55.54861 | 37.58255 | 16094 ft | 317 kts | 216° |
| 2026-04-29 16:20 | 55.52857 | 37.56724 | 15826 ft | 318 kts | 195° |
| 2026-04-29 16:20 | 55.50643 | 37.56125 | 15571 ft | 320 kts | 189° |
| 2026-04-29 16:20 | 55.48417 | 37.55634 | 15338 ft | 320 kts | 189° |
| 2026-04-29 16:21 | 55.46182 | 37.55133 | 15093 ft | 319 kts | 189° |
| 2026-04-29 16:21 | 55.43991 | 37.54644 | 14848 ft | 318 kts | 189° |
| 2026-04-29 16:21 | 55.41803 | 37.54156 | 14577 ft | 317 kts | 189° |
| 2026-04-29 16:21 | 55.39615 | 37.53669 | 14288 ft | 316 kts | 189° |
| 2026-04-29 16:22 | 55.37444 | 37.53186 | 14040 ft | 314 kts | 188° |
| 2026-04-29 16:22 | 55.35295 | 37.52731 | 13758 ft | 314 kts | 186° |
| 2026-04-29 16:22 | 55.33124 | 37.52777 | 13494 ft | 311 kts | 178° |
| 2026-04-29 16:22 | 55.30977 | 37.52988 | 13245 ft | 308 kts | 178° |
| 2026-04-29 16:23 | 55.28851 | 37.53187 | 12979 ft | 303 kts | 178° |
| 2026-04-29 16:23 | 55.26778 | 37.53380 | 12733 ft | 296 kts | 178° |
| 2026-04-29 16:23 | 55.24756 | 37.53567 | 12477 ft | 289 kts | 178° |
| 2026-04-29 16:23 | 55.22763 | 37.53752 | 12237 ft | 283 kts | 178° |
| 2026-04-29 16:24 | 55.20815 | 37.53851 | 12005 ft | 280 kts | 182° |
| 2026-04-29 16:24 | 55.18856 | 37.53741 | 11757 ft | 279 kts | 184° |
| 2026-04-29 16:24 | 55.16906 | 37.53613 | 11525 ft | 278 kts | 183° |
| 2026-04-29 16:24 | 55.14983 | 37.53486 | 11284 ft | 278 kts | 184° |
| 2026-04-29 16:25 | 55.13136 | 37.52684 | 11003 ft | 272 kts | 213° |
| 2026-04-29 16:25 | 55.11881 | 37.50357 | 10703 ft | 262 kts | 249° |
| 2026-04-29 16:25 | 55.11561 | 37.47310 | 10412 ft | 253 kts | 274° |
| 2026-04-29 16:25 | 55.11839 | 37.44296 | 10136 ft | 250 kts | 291° |
| 2026-04-29 16:26 | 55.12609 | 37.41552 | 9861 ft | 247 kts | 307° |
| 2026-04-29 16:26 | 55.13771 | 37.39369 | 9596 ft | 244 kts | 323° |
| 2026-04-29 16:26 | 55.15247 | 37.38169 | 8701 ft | 255 kts | 17° |
| 2026-04-29 16:26 | 55.16981 | 37.38967 | 8355 ft | 245 kts | 2° |
| 2026-04-29 16:27 | 55.18608 | 37.38429 | 8111 ft | 236 kts | 339° |
| 2026-04-29 16:27 | 55.20238 | 37.37218 | 8140 ft | 269 kts | 339° |
| 2026-04-29 16:27 | 55.21959 | 37.36042 | 9853 ft | 267 kts | 338° |